Time;durP1;ratioP1;P1;durP2;ratioP2;P2;SDS_P1;SDS_P2;PMS_P1;PMS_P2;Temp;Humidity;BMP_temperature;BMP_pressure;BME280_temperature;BME280_humidity;BME280_pressure;Samples;Min_cycle;Max_cycle;Signal;HPM_P1;HPM_P2
2022/10/21 00:00:00;;;;;;;27.03;11.00;;;17.20;99.90;;;;;;5070380;28;20482;-63
2022/10/21 00:02:27;;;;;;;28.40;7.90;;;;;;;;;;5070291;28;20506;-63
2022/10/21 00:04:54;;;;;;;32.83;6.80;;;17.10;99.90;;;;;;5073154;28;20486;-63
2022/10/21 00:07:21;;;;;;;23.33;8.50;;;;;;;;;;5062066;28;20841;-62
2022/10/21 00:09:49;;;;;;;23.00;6.87;;;;;;;;;;5087989;28;21104;-63
2022/10/21 00:12:16;;;;;;;24.00;7.03;;;16.90;99.90;;;;;;5068800;28;20738;-62
2022/10/21 00:14:43;;;;;;;17.77;6.10;;;16.90;99.90;;;;;;5062639;28;20470;-62
2022/10/21 00:17:10;;;;;;;33.90;14.60;;;;;;;;;;5068114;28;21040;-63
2022/10/21 00:19:38;;;;;;;31.03;6.87;;;16.80;99.90;;;;;;5074858;28;20999;-62
2022/10/21 00:22:06;;;;;;;24.43;9.57;;;;;;;;;;5073464;28;20489;-62
2022/10/21 00:24:32;;;;;;;23.17;8.33;;;16.60;99.90;;;;;;5073410;28;20494;-62
2022/10/21 00:27:01;;;;;;;29.00;9.67;;;16.40;99.90;;;;;;5070299;28;20982;-62
2022/10/21 00:29:28;;;;;;;25.90;6.70;;;16.30;99.90;;;;;;5075524;28;20479;-62
2022/10/21 00:31:55;;;;;;;21.73;6.40;;;18.30;99.90;;;;;;5066485;28;20490;-61
2022/10/21 00:34:22;;;;;;;22.93;6.53;;;;;;;;;;5076601;28;21030;-62
2022/10/21 00:36:49;;;;;;;17.30;6.00;;;;;;;;;;5072674;28;20475;-61
2022/10/21 00:39:16;;;;;;;20.57;6.87;;;16.20;99.90;;;;;;5073997;28;20557;-61
2022/10/21 00:41:43;;;;;;;12.73;4.50;;;16.20;99.90;;;;;;5070543;28;20810;-62
2022/10/21 00:44:13;;;;;;;26.60;10.40;;;;;;;;;;5070837;28;20475;-62
2022/10/21 00:46:43;;;;;;;18.77;7.13;;;16.10;99.90;;;;;;5062748;28;20824;-62
2022/10/21 00:49:15;;;;;;;33.10;8.50;;;;;;;;;;5065804;28;20517;-62
2022/10/21 00:51:42;;;;;;;24.17;7.10;;;;;;;;;;5073081;28;20681;-63
2022/10/21 00:54:10;;;;;;;26.63;10.00;;;16.40;99.90;;;;;;5071576;28;20969;-62
2022/10/21 00:56:37;;;;;;;20.43;5.93;;;;;;;;;;5064663;28;20482;-61
2022/10/21 00:59:06;;;;;;;22.10;10.07;;;16.60;99.90;;;;;;5068614;28;20474;-61
2022/10/21 01:01:34;;;;;;;15.83;6.53;;;16.60;99.90;;;;;;5059572;28;20695;-61
2022/10/21 01:04:02;;;;;;;23.73;8.87;;;16.70;99.90;;;;;;5043000;28;20837;-62
2022/10/21 01:06:29;;;;;;;19.13;7.33;;;;;;;;;;5073828;28;21235;-61
2022/10/21 01:08:57;;;;;;;14.60;6.47;;;16.70;99.90;;;;;;5079466;28;20618;-61
2022/10/21 01:11:25;;;;;;;24.73;7.57;;;16.80;99.90;;;;;;5071887;28;20873;-61
2022/10/21 01:14:23;;;;;;;11.50;5.13;;;16.80;99.90;;;;;;5074204;28;20868;-62
2022/10/21 01:17:01;;;;;;;24.53;5.77;;;16.70;99.90;;;;;;5056217;28;20482;-61
2022/10/21 01:19:57;;;;;;;27.93;6.40;;;16.70;99.90;;;;;;5073179;28;20485;-62
2022/10/21 01:22:42;;;;;;;14.93;6.53;;;16.70;99.90;;;;;;5074772;28;20502;-62
2022/10/21 01:25:30;;;;;;;28.93;10.10;;;16.70;99.90;;;;;;5041854;28;20481;-61
2022/10/21 01:28:05;;;;;;;28.83;6.47;;;16.70;99.90;;;;;;5069707;28;20611;-61
2022/10/21 01:30:42;;;;;;;19.33;6.87;;;16.60;99.90;;;;;;5066092;28;20489;-62
2022/10/21 01:33:35;;;;;;;24.90;9.10;;;16.60;99.90;;;;;;5064427;28;20466;-62
2022/10/21 01:36:06;;;;;;;29.10;10.90;;;;;;;;;;5068154;28;20869;-62
2022/10/21 01:38:40;;;;;;;33.37;6.90;;;16.50;99.90;;;;;;5070082;28;20475;-61
2022/10/21 01:41:13;;;;;;;36.53;12.83;;;16.40;99.90;;;;;;5070285;28;20449;-62
2022/10/21 01:43:43;;;;;;;21.90;6.30;;;;;;;;;;5070338;28;20491;-61
2022/10/21 01:46:15;;;;;;;27.03;10.67;;;16.30;99.90;;;;;;5069920;28;20764;-61
2022/10/21 01:48:46;;;;;;;17.37;7.33;;;16.30;99.90;;;;;;5038748;28;20496;-61
2022/10/21 01:51:14;;;;;;;19.23;8.40;;;16.30;99.90;;;;;;5067816;28;20481;-62
2022/10/21 01:53:45;;;;;;;26.27;6.47;;;16.40;99.90;;;;;;5073355;28;20822;-62
2022/10/21 01:56:15;;;;;;;25.53;10.80;;;16.40;99.90;;;;;;5062025;28;20493;-62
2022/10/21 01:58:43;;;;;;;34.37;6.90;;;;;;;;;;5070684;28;20486;-61
2022/10/21 02:01:11;;;;;;;24.67;9.27;;;;;;;;;;5072790;28;20487;-61
2022/10/21 02:03:43;;;;;;;25.63;8.60;;;16.30;99.90;;;;;;5069150;28;20482;-62
2022/10/21 02:06:12;;;;;;;28.10;9.93;;;;;;;;;;5066200;28;20482;-62
2022/10/21 02:08:39;;;;;;;24.73;8.70;;;;;;;;;;5067406;28;21063;-62
2022/10/21 02:11:08;;;;;;;37.47;12.77;;;;;;;;;;5052979;28;20492;-62
2022/10/21 02:13:41;;;;;;;28.80;8.30;;;16.20;99.90;;;;;;5077374;28;20481;-61
2022/10/21 02:16:12;;;;;;;28.63;10.40;;;16.20;99.90;;;;;;5057119;28;20497;-62
2022/10/21 02:18:40;;;;;;;18.70;7.10;;;16.20;99.90;;;;;;5067676;28;21136;-63
2022/10/21 02:21:10;;;;;;;44.00;11.83;;;;;;;;;;5068449;28;20946;-61
2022/10/21 02:23:42;;;;;;;18.83;4.83;;;16.10;99.90;;;;;;5074293;28;20494;-61
2022/10/21 02:26:09;;;;;;;35.50;12.10;;;16.00;99.90;;;;;;5070561;28;20750;-62
2022/10/21 02:28:36;;;;;;;21.50;6.47;;;;;;;;;;5075280;28;20841;-62
2022/10/21 02:31:10;;;;;;;45.63;11.73;;;;;;;;;;5075330;28;20486;-61
2022/10/21 02:33:51;;;;;;;26.27;5.50;;;15.90;99.90;;;;;;5056854;28;20501;-62
2022/10/21 02:36:30;;;;;;;35.83;8.60;;;15.80;99.90;;;;;;5064530;28;20666;-61
2022/10/21 02:39:01;;;;;;;22.33;5.47;;;15.80;99.90;;;;;;5058226;28;20478;-62
2022/10/21 02:41:29;;;;;;;20.87;5.30;;;15.70;99.90;;;;;;5073087;28;20485;-62
2022/10/21 02:43:59;;;;;;;26.60;8.00;;;15.40;99.90;;;;;;5075499;28;20876;-62
2022/10/21 02:46:26;;;;;;;31.67;8.77;;;;;;;;;;5073809;28;20547;-61
2022/10/21 02:48:55;;;;;;;25.57;6.80;;;;;;;;;;5076267;28;20471;-61
2022/10/21 02:51:21;;;;;;;13.50;5.77;;;15.50;99.90;;;;;;5067480;28;20509;-62
2022/10/21 02:53:48;;;;;;;35.07;7.33;;;;;;;;;;5074822;28;20494;-61
2022/10/21 02:56:15;;;;;;;28.93;10.93;;;15.60;99.90;;;;;;5074593;28;20737;-62
2022/10/21 02:58:42;;;;;;;15.57;6.63;;;15.60;99.90;;;;;;5075070;28;20478;-62
2022/10/21 03:01:08;;;;;;;29.67;10.43;;;15.60;99.90;;;;;;5070179;28;20489;-61
2022/10/21 03:03:35;;;;;;;32.93;8.23;;;15.60;99.90;;;;;;5073876;28;20478;-62
2022/10/21 03:06:03;;;;;;;33.60;11.23;;;15.60;99.90;;;;;;5074971;28;20486;-61
2022/10/21 03:08:30;;;;;;;41.57;8.07;;;;;;;;;;5062239;28;20485;-62
2022/10/21 03:10:57;;;;;;;26.80;7.07;;;15.70;99.90;;;;;;5027366;28;20477;-62
2022/10/21 03:13:24;;;;;;;31.50;7.60;;;15.60;99.90;;;;;;5072683;28;20969;-61
2022/10/21 03:15:51;;;;;;;18.10;6.13;;;;;;;;;;5062186;28;20502;-61
2022/10/21 03:18:18;;;;;;;29.50;7.27;;;;;;;;;;5053343;28;20481;-61
2022/10/21 03:20:48;;;;;;;21.27;6.60;;;15.50;99.90;;;;;;5068959;28;20494;-62
2022/10/21 03:23:17;;;;;;;32.83;9.10;;;15.40;99.90;;;;;;5071948;28;20545;-61
2022/10/21 03:25:43;;;;;;;24.50;6.77;;;15.40;99.90;;;;;;5062390;28;20600;-61
2022/10/21 03:28:10;;;;;;;29.93;9.10;;;15.20;99.90;;;;;;5068783;28;20489;-61
2022/10/21 03:30:37;;;;;;;31.43;8.00;;;;;;;;;;5069719;28;20483;-61
2022/10/21 03:33:04;;;;;;;41.33;12.13;;;15.20;99.90;;;;;;5062739;28;21317;-61
2022/10/21 03:35:31;;;;;;;28.70;7.10;;;15.10;99.90;;;;;;5071921;28;20485;-61
2022/10/21 03:37:57;;;;;;;28.93;6.80;;;15.30;99.90;;;;;;5075490;28;20604;-61
2022/10/21 03:40:28;;;;;;;21.47;7.67;;;15.20;99.90;;;;;;5074518;28;20990;-60
2022/10/21 03:42:55;;;;;;;19.30;6.50;;;15.20;99.90;;;;;;5075108;28;20594;-61
2022/10/21 03:45:22;;;;;;;21.93;7.47;;;15.20;99.90;;;;;;5075915;28;20485;-61
2022/10/21 03:47:49;;;;;;;23.23;6.40;;;15.30;99.90;;;;;;5072688;28;20489;-60
2022/10/21 03:50:15;;;;;;;25.20;9.00;;;15.40;99.90;;;;;;5070317;28;20842;-61
2022/10/21 03:52:42;;;;;;;39.70;6.40;;;;;;;;;;5075228;28;20501;-61
2022/10/21 03:55:09;;;;;;;35.70;11.43;;;15.30;99.90;;;;;;5074599;28;20482;-61
2022/10/21 03:57:37;;;;;;;31.00;9.47;;;15.30;99.90;;;;;;5073443;28;20475;-60
2022/10/21 04:00:06;;;;;;;37.37;11.60;;;15.40;99.90;;;;;;5074752;28;20483;-61
2022/10/21 04:02:33;;;;;;;21.87;7.20;;;15.40;99.90;;;;;;5073305;28;20482;-61
2022/10/21 04:04:59;;;;;;;35.07;10.87;;;15.40;99.90;;;;;;5072653;28;20825;-60
2022/10/21 04:07:26;;;;;;;33.80;8.90;;;;;;;;;;5071702;28;20682;-62
2022/10/21 04:09:54;;;;;;;21.43;7.80;;;;;;;;;;5060416;28;20474;-61
2022/10/21 04:12:21;;;;;;;24.83;8.10;;;15.60;99.90;;;;;;5072516;28;20478;-61
2022/10/21 04:14:49;;;;;;;22.60;6.40;;;15.60;99.90;;;;;;5071104;28;20527;-61
2022/10/21 04:17:15;;;;;;;18.17;7.87;;;15.60;99.90;;;;;;5074725;28;20830;-61
2022/10/21 04:19:42;;;;;;;16.00;6.70;;;15.60;99.90;;;;;;5072690;28;20897;-61
2022/10/21 04:22:09;;;;;;;20.50;8.30;;;15.60;99.90;;;;;;5073735;28;20486;-61
2022/10/21 04:24:35;;;;;;;20.50;8.20;;;15.60;99.90;;;;;;5062685;28;20494;-61
2022/10/21 04:27:02;;;;;;;24.03;10.97;;;15.70;99.90;;;;;;5066503;28;20654;-62
2022/10/21 04:29:29;;;;;;;26.07;7.83;;;15.60;99.90;;;;;;5075404;28;20474;-62
2022/10/21 04:31:57;;;;;;;29.70;9.33;;;15.70;99.90;;;;;;5057700;28;20945;-62
2022/10/21 04:34:24;;;;;;;21.93;6.57;;;;;;;;;;5074439;28;20513;-61
2022/10/21 04:36:51;;;;;;;26.27;6.93;;;;;;;;;;5072655;28;20489;-62
2022/10/21 04:39:18;;;;;;;21.50;7.60;;;15.90;99.90;;;;;;5078349;28;20490;-62
2022/10/21 04:41:46;;;;;;;25.30;8.07;;;15.90;99.90;;;;;;5076816;28;20482;-62
2022/10/21 04:44:13;;;;;;;32.40;8.80;;;16.00;99.90;;;;;;5075802;28;20500;-62
2022/10/21 04:46:40;;;;;;;20.80;8.30;;;16.00;99.90;;;;;;5071078;28;20478;-62
2022/10/21 04:49:08;;;;;;;28.93;13.90;;;16.10;99.90;;;;;;5069932;28;20494;-62
2022/10/21 04:51:35;;;;;;;32.73;8.40;;;16.10;99.90;;;;;;5070582;28;21131;-61
2022/10/21 04:54:02;;;;;;;25.47;11.57;;;;;;;;;;5064605;28;20474;-63
2022/10/21 04:56:29;;;;;;;22.30;8.60;;;;;;;;;;5065790;28;20847;-62
2022/10/21 04:58:55;;;;;;;24.60;6.77;;;16.20;99.90;;;;;;5069760;28;20935;-62
2022/10/21 05:01:22;;;;;;;24.43;7.80;;;16.10;99.90;;;;;;5071758;28;20689;-62
2022/10/21 05:03:49;;;;;;;19.27;8.10;;;;;;;;;;5070607;28;20489;-62
2022/10/21 05:06:17;;;;;;;39.53;12.20;;;;;;;;;;5071663;28;20494;-63
2022/10/21 05:08:44;;;;;;;20.33;8.00;;;15.90;99.90;;;;;;5065053;28;20478;-62
2022/10/21 05:11:12;;;;;;;29.73;11.27;;;16.10;99.90;;;;;;5069279;28;21017;-62
2022/10/21 05:13:38;;;;;;;33.77;10.00;;;16.10;99.90;;;;;;5071958;28;20470;-63
2022/10/21 05:16:06;;;;;;;32.70;12.97;;;;;;;;;;5062023;28;20470;-62
2022/10/21 05:18:32;;;;;;;19.27;7.63;;;16.10;99.90;;;;;;5068465;28;20470;-62
2022/10/21 05:21:00;;;;;;;27.13;10.27;;;16.10;99.90;;;;;;5057842;28;20560;-62
2022/10/21 05:23:28;;;;;;;30.87;11.33;;;16.10;99.90;;;;;;5080715;28;20549;-62
2022/10/21 05:25:55;;;;;;;23.20;9.60;;;;;;;;;;5072976;28;20478;-63
2022/10/21 05:28:22;;;;;;;23.43;8.00;;;16.10;99.90;;;;;;5056167;28;20556;-62
2022/10/21 05:30:49;;;;;;;27.13;12.37;;;16.10;99.90;;;;;;5076130;28;20477;-62
2022/10/21 05:33:16;;;;;;;29.90;14.60;;;;;;;;;;5069988;28;20479;-62
2022/10/21 05:35:43;;;;;;;39.73;13.80;;;;;;;;;;5072972;28;21791;-62
2022/10/21 05:38:10;;;;;;;27.57;13.33;;;16.30;99.90;;;;;;5071731;28;20487;-62
2022/10/21 05:40:38;;;;;;;27.90;10.80;;;16.20;99.90;;;;;;5072069;28;20482;-63
2022/10/21 05:43:05;;;;;;;34.17;11.30;;;16.20;99.90;;;;;;5071743;28;20488;-62
2022/10/21 05:45:32;;;;;;;28.40;9.87;;;;;;;;;;5062833;28;20995;-63
2022/10/21 05:47:58;;;;;;;22.73;8.87;;;17.10;99.90;;;;;;5043955;28;21001;-63
2022/10/21 05:50:25;;;;;;;35.77;11.07;;;16.00;99.90;;;;;;5053945;28;20482;-62
2022/10/21 05:52:52;;;;;;;16.70;8.50;;;;;;;;;;5050105;28;21049;-62
2022/10/21 05:55:19;;;;;;;28.40;10.00;;;15.90;99.90;;;;;;5049707;28;20498;-62
2022/10/21 05:57:47;;;;;;;20.97;7.43;;;15.80;99.90;;;;;;5065540;28;20486;-62
2022/10/21 06:00:14;;;;;;;20.43;8.57;;;15.80;99.90;;;;;;5067211;28;20478;-62
2022/10/21 06:02:41;;;;;;;18.23;7.97;;;15.90;99.90;;;;;;5075422;28;20475;-62
2022/10/21 06:05:08;;;;;;;22.33;7.43;;;15.90;99.90;;;;;;5073358;28;20486;-62
2022/10/21 06:07:35;;;;;;;21.60;8.20;;;15.90;99.90;;;;;;5070399;28;20470;-62
2022/10/21 06:10:02;;;;;;;28.20;9.20;;;15.90;99.90;;;;;;5075346;28;20489;-63
2022/10/21 06:12:29;;;;;;;31.33;8.57;;;16.00;99.90;;;;;;5075998;28;21057;-62
2022/10/21 06:14:57;;;;;;;15.37;6.53;;;16.10;99.90;;;;;;5074243;28;20495;-62
2022/10/21 06:17:24;;;;;;;26.40;8.47;;;;;;;;;;5059548;28;20482;-62
2022/10/21 06:19:51;;;;;;;30.33;7.87;;;16.20;99.90;;;;;;5073204;28;20505;-63
2022/10/21 06:22:17;;;;;;;23.70;7.93;;;16.20;99.90;;;;;;5071588;28;20949;-63
2022/10/21 06:24:45;;;;;;;23.23;7.70;;;16.30;99.90;;;;;;5074780;28;20474;-62
2022/10/21 06:27:12;;;;;;;28.70;9.77;;;16.30;99.90;;;;;;5072241;28;20483;-62
2022/10/21 06:29:39;;;;;;;34.90;11.10;;;16.30;99.90;;;;;;5061715;28;21323;-63
2022/10/21 06:32:07;;;;;;;33.20;11.00;;;16.40;99.90;;;;;;5081806;28;20490;-63
2022/10/21 06:34:34;;;;;;;23.00;6.47;;;16.50;99.90;;;;;;5068823;28;21076;-63
2022/10/21 06:37:00;;;;;;;32.17;10.90;;;16.50;99.90;;;;;;5071489;28;20474;-63
2022/10/21 06:39:27;;;;;;;25.87;9.43;;;16.60;99.90;;;;;;5063451;28;20471;-63
2022/10/21 06:41:54;;;;;;;23.57;7.00;;;16.70;99.90;;;;;;5062490;28;20863;-63
2022/10/21 06:44:21;;;;;;;23.20;9.57;;;16.80;99.90;;;;;;5058939;28;20489;-62
2022/10/21 06:46:47;;;;;;;25.83;8.80;;;16.90;99.90;;;;;;5070327;28;20528;-63
2022/10/21 06:49:15;;;;;;;34.60;10.63;;;17.00;99.90;;;;;;5074945;28;20470;-63
2022/10/21 06:51:42;;;;;;;28.23;8.60;;;;;;;;;;5058362;28;20480;-62
2022/10/21 06:54:09;;;;;;;39.93;12.43;;;;;;;;;;5078756;28;20482;-63
2022/10/21 06:56:36;;;;;;;29.77;7.60;;;17.00;99.90;;;;;;5063936;28;20482;-63
2022/10/21 06:59:03;;;;;;;35.00;12.63;;;17.00;99.90;;;;;;5071008;28;20735;-62
2022/10/21 07:01:31;;;;;;;29.33;8.70;;;17.00;99.90;;;;;;5070751;28;20746;-63
2022/10/21 07:03:58;;;;;;;23.10;7.60;;;17.00;99.90;;;;;;5071097;28;20494;-63
2022/10/21 07:06:27;;;;;;;28.80;9.47;;;17.10;99.90;;;;;;5065666;28;20490;-62
2022/10/21 07:08:53;;;;;;;22.47;8.50;;;17.20;99.90;;;;;;5063754;28;20501;-63
2022/10/21 07:11:20;;;;;;;26.57;7.33;;;17.30;99.90;;;;;;5060243;28;20493;-63
2022/10/21 07:13:47;;;;;;;19.73;7.60;;;17.40;99.90;;;;;;5065603;28;20990;-63
2022/10/21 07:16:19;;;;;;;24.03;10.83;;;17.40;99.90;;;;;;5068142;28;20486;-63
2022/10/21 07:18:46;;;;;;;28.83;10.40;;;17.40;99.90;;;;;;5061791;28;21348;-63
2022/10/21 07:21:15;;;;;;;36.30;12.10;;;17.50;99.90;;;;;;5060101;28;20470;-62
2022/10/21 07:23:44;;;;;;;32.97;8.97;;;17.40;99.90;;;;;;5062320;28;20784;-63
2022/10/21 07:26:11;;;;;;;27.40;11.70;;;;;;;;;;5061817;28;20535;-62
2022/10/21 07:28:39;;;;;;;26.83;8.70;;;;;;;;;;5059233;28;20486;-62
2022/10/21 07:31:06;;;;;;;37.30;10.73;;;;;;;;;;5077394;28;20535;-63
2022/10/21 07:33:34;;;;;;;32.33;10.60;;;17.50;99.90;;;;;;5051498;28;20506;-62
2022/10/21 07:36:05;;;;;;;32.70;11.20;;;;;;;;;;5063201;28;20459;-63
2022/10/21 07:38:32;;;;;;;21.77;6.33;;;17.60;99.90;;;;;;5054362;28;20474;-63
2022/10/21 07:41:01;;;;;;;41.43;10.97;;;;;;;;;;5062701;28;20482;-63
2022/10/21 07:43:28;;;;;;;38.43;10.03;;;;;;;;;;5060600;28;20480;-62
2022/10/21 07:45:56;;;;;;;35.83;8.80;;;17.70;99.90;;;;;;5067933;28;20489;-63
2022/10/21 07:48:23;;;;;;;54.73;9.70;;;;;;;;;;5080193;28;20916;-62
2022/10/21 07:50:51;;;;;;;97.30;14.23;;;;;;;;;;5046310;28;20489;-62
2022/10/21 07:53:19;;;;;;;56.40;10.10;;;;;;;;;;5073397;28;20560;-62
2022/10/21 07:55:45;;;;;;;23.57;8.37;;;17.10;99.90;;;;;;5073654;28;20474;-62
2022/10/21 07:58:13;;;;;;;40.87;12.80;;;17.10;99.90;;;;;;5073300;28;20494;-63
2022/10/21 08:00:43;;;;;;;37.63;9.13;;;17.10;99.90;;;;;;5072860;28;20474;-63
2022/10/21 08:03:11;;;;;;;26.17;11.20;;;17.10;99.90;;;;;;5063044;28;20581;-63
2022/10/21 08:05:40;;;;;;;22.30;8.00;;;;;;;;;;5059928;28;20493;-63
2022/10/21 08:08:07;;;;;;;34.20;12.67;;;;;;;;;;5062232;28;21131;-63
2022/10/21 08:10:39;;;;;;;23.73;8.50;;;17.10;99.90;;;;;;5071618;28;21067;-63
2022/10/21 08:13:06;;;;;;;43.10;11.43;;;17.10;99.90;;;;;;5068731;28;20597;-63
2022/10/21 08:15:34;;;;;;;20.60;8.00;;;17.00;99.90;;;;;;5065718;28;20970;-63
2022/10/21 08:18:01;;;;;;;28.67;10.60;;;16.90;99.90;;;;;;5056870;28;20596;-63
2022/10/21 08:20:28;;;;;;;25.93;6.83;;;16.90;99.90;;;;;;5076525;28;21332;-62
2022/10/21 08:22:55;;;;;;;26.50;7.57;;;16.90;99.90;;;;;;5077049;28;20482;-63
2022/10/21 08:25:21;;;;;;;21.00;5.83;;;16.80;99.90;;;;;;5074842;28;20553;-63
2022/10/21 08:27:48;;;;;;;20.23;6.83;;;;;;;;;;5069695;28;23257;-62
2022/10/21 08:30:15;;;;;;;29.83;9.50;;;;;;;;;;5070234;28;20474;-62
2022/10/21 08:32:44;;;;;;;19.67;7.67;;;;;;;;;;5067538;28;20478;-62
2022/10/21 08:35:10;;;;;;;27.70;8.20;;;14.40;99.90;;;;;;5065152;28;20483;-62
2022/10/21 08:37:37;;;;;;;19.10;7.47;;;16.80;99.90;;;;;;5068928;28;20491;-62
2022/10/21 08:40:05;;;;;;;26.73;10.47;;;16.80;99.90;;;;;;5072247;28;21184;-62
2022/10/21 08:42:32;;;;;;;16.60;4.50;;;16.80;99.90;;;;;;5069453;28;20478;-61
2022/10/21 08:45:01;;;;;;;17.00;6.33;;;18.90;99.90;;;;;;5058991;28;21157;-62
2022/10/21 08:47:33;;;;;;;23.57;7.80;;;;;;;;;;5081891;28;20473;-61
2022/10/21 08:50:04;;;;;;;24.50;7.20;;;16.80;99.90;;;;;;5069973;28;20743;-61
2022/10/21 08:52:43;;;;;;;22.93;6.17;;;16.80;99.90;;;;;;5067326;28;20490;-61
2022/10/21 08:55:16;;;;;;;34.43;8.70;;;16.80;99.90;;;;;;5049709;28;20480;-62
2022/10/21 08:57:43;;;;;;;23.40;6.00;;;16.90;99.90;;;;;;5068734;28;20524;-63
2022/10/21 09:00:15;;;;;;;33.97;10.40;;;16.90;99.90;;;;;;5077720;28;20667;-62
2022/10/21 09:03:04;;;;;;;18.87;5.27;;;17.00;99.90;;;;;;5070601;28;20486;-62
2022/10/21 09:05:57;;;;;;;24.43;6.63;;;17.10;99.90;;;;;;5068509;28;20474;-63
2022/10/21 09:08:32;;;;;;;48.80;15.20;;;17.10;99.90;;;;;;5037262;28;20514;-63
2022/10/21 09:11:07;;;;;;;38.57;9.80;;;17.00;99.90;;;;;;5071658;28;20477;-63
2022/10/21 09:14:17;;;;;;;24.10;6.20;;;17.00;99.90;;;;;;5062394;28;20482;-63
2022/10/21 09:16:54;;;;;;;22.13;6.50;;;17.00;99.90;;;;;;5030828;28;20462;-62
2022/10/21 09:19:29;;;;;;;20.67;4.63;;;;;;;;;;5069637;28;20672;-63
2022/10/21 09:22:09;;;;;;;18.47;6.23;;;17.00;99.90;;;;;;5069785;28;20982;-63
2022/10/21 09:24:43;;;;;;;17.17;4.27;;;17.00;99.90;;;;;;5070608;28;20836;-63
2022/10/21 09:27:11;;;;;;;23.80;9.60;;;17.10;99.90;;;;;;5064134;28;20890;-63
2022/10/21 09:29:39;;;;;;;14.57;4.90;;;;;;;;;;5078605;28;20482;-63
2022/10/21 09:32:11;;;;;;;21.80;8.43;;;;;;;;;;5064348;28;20482;-63
2022/10/21 09:34:45;;;;;;;15.87;6.33;;;;;;;;;;5069124;28;20556;-63
2022/10/21 09:37:18;;;;;;;29.43;7.93;;;;;;;;;;5061482;28;20493;-63
2022/10/21 09:39:49;;;;;;;17.23;5.50;;;17.20;99.90;;;;;;5061691;28;20475;-63
2022/10/21 09:42:16;;;;;;;19.63;6.87;;;17.20;99.90;;;;;;5070707;28;20810;-63
2022/10/21 09:44:44;;;;;;;24.20;5.70;;;17.20;99.90;;;;;;5072276;28;21241;-63
2022/10/21 09:47:18;;;;;;;21.93;9.37;;;;;;;;;;5062604;28;20468;-63
2022/10/21 09:49:46;;;;;;;22.20;5.60;;;;;;;;;;5069807;28;20571;-61
2022/10/21 09:52:17;;;;;;;29.20;8.90;;;17.30;99.90;;;;;;5070757;28;20487;-62
2022/10/21 09:54:45;;;;;;;29.10;8.40;;;17.40;99.90;;;;;;5058876;28;20924;-62
2022/10/21 09:57:14;;;;;;;43.00;9.53;;;;;;;;;;5060151;28;20494;-63
2022/10/21 09:59:51;;;;;;;23.77;5.57;;;17.50;99.90;;;;;;5071740;28;20478;-62
2022/10/21 10:02:25;;;;;;;26.53;6.70;;;17.50;99.90;;;;;;5066242;28;20497;-63
2022/10/21 10:04:52;;;;;;;42.63;8.70;;;;;;;;;;5070321;28;20750;-62
2022/10/21 10:07:28;;;;;;;38.60;8.07;;;17.40;99.90;;;;;;5068224;28;21048;-62
2022/10/21 10:09:55;;;;;;;27.03;7.57;;;14.50;99.90;;;;;;5068255;28;21104;-62
2022/10/21 10:12:23;;;;;;;25.57;6.93;;;17.20;99.90;;;;;;5060903;28;20466;-63
2022/10/21 10:14:50;;;;;;;25.83;5.50;;;;;;;;;;5044535;28;20470;-62
2022/10/21 10:17:28;;;;;;;34.87;7.43;;;17.40;99.90;;;;;;5067963;28;20481;-61
2022/10/21 10:20:11;;;;;;;31.23;8.10;;;;;;;;;;5066909;28;20474;-62
2022/10/21 10:22:41;;;;;;;28.57;6.43;;;17.50;99.90;;;;;;5068463;28;20825;-62
2022/10/21 10:25:09;;;;;;;24.33;9.40;;;17.50;99.90;;;;;;5061518;28;20513;-62
2022/10/21 10:27:37;;;;;;;22.03;6.40;;;17.60;99.90;;;;;;5075861;28;20466;-62
2022/10/21 10:30:05;;;;;;;30.97;11.90;;;17.60;99.90;;;;;;5066716;28;21399;-63
2022/10/21 10:32:34;;;;;;;21.43;7.43;;;;;;;;;;5068062;28;20479;-61
2022/10/21 10:35:03;;;;;;;43.57;11.50;;;;;;;;;;5069045;28;21411;-62
2022/10/21 10:37:34;;;;;;;30.43;8.90;;;17.90;99.90;;;;;;5070945;28;20544;-62
2022/10/21 10:40:04;;;;;;;33.30;9.80;;;;;;;;;;5071084;28;20509;-61
2022/10/21 10:42:36;;;;;;;22.60;6.50;;;16.50;99.90;;;;;;5066601;28;20493;-61
2022/10/21 10:45:06;;;;;;;33.67;9.97;;;18.20;99.90;;;;;;5072273;28;20483;-61
2022/10/21 10:47:40;;;;;;;19.23;5.27;;;18.40;99.90;;;;;;5071414;28;20474;-62
2022/10/21 10:50:40;;;;;;;41.67;12.50;;;18.60;99.90;;;;;;5057570;28;21043;-62
2022/10/21 10:53:38;;;;;;;30.20;10.53;;;19.00;99.90;;;;;;5070002;28;20514;-62
2022/10/21 10:56:13;;;;;;;33.27;9.57;;;;;;;;;;5009435;28;20477;-61
2022/10/21 10:58:45;;;;;;;22.73;7.20;;;19.50;99.90;;;;;;5060492;28;20465;-61
2022/10/21 11:01:17;;;;;;;24.63;7.23;;;19.50;99.90;;;;;;5067208;28;21008;-62
2022/10/21 11:03:46;;;;;;;12.43;3.93;;;;;;;;;;5065745;28;20449;-63
2022/10/21 11:06:16;;;;;;;29.43;10.87;;;19.60;99.90;;;;;;5062558;28;20478;-62
2022/10/21 11:08:47;;;;;;;9.30;3.90;;;19.80;99.90;;;;;;5072881;28;20598;-63
2022/10/21 11:11:22;;;;;;;11.20;6.40;;;19.80;99.90;;;;;;5059980;28;20893;-62
2022/10/21 11:13:49;;;;;;;14.23;3.87;;;20.30;99.90;;;;;;5071620;28;20587;-63
2022/10/21 11:16:31;;;;;;;10.60;7.67;;;19.80;99.90;;;;;;5061290;28;20490;-62
2022/10/21 11:19:08;;;;;;;7.60;5.03;;;19.80;99.90;;;;;;5017613;28;21887;-63
2022/10/21 11:21:44;;;;;;;9.30;5.10;;;19.90;99.90;;;;;;5025801;28;20499;-62
2022/10/21 11:24:45;;;;;;;11.90;6.83;;;19.80;99.90;;;;;;5039216;28;21079;-62
2022/10/21 11:27:22;;;;;;;12.10;7.27;;;19.70;99.90;;;;;;5048110;28;20565;-62
2022/10/21 11:29:57;;;;;;;6.20;4.50;;;19.70;99.90;;;;;;5054728;28;20994;-61
2022/10/21 11:32:34;;;;;;;6.20;4.83;;;19.50;99.90;;;;;;5040467;28;20482;-63
2022/10/21 11:35:15;;;;;;;11.77;7.07;;;19.60;99.90;;;;;;5042018;28;20598;-63
2022/10/21 11:37:54;;;;;;;7.60;4.70;;;19.80;99.90;;;;;;5048018;28;20490;-63
2022/10/21 11:40:32;;;;;;;8.33;4.87;;;19.80;99.90;;;;;;5052207;28;20486;-64
2022/10/21 11:43:11;;;;;;;9.87;6.93;;;19.80;99.90;;;;;;5041695;28;20494;-63
2022/10/21 11:45:48;;;;;;;10.57;4.60;;;19.80;99.90;;;;;;5041409;28;20873;-63
2022/10/21 11:48:25;;;;;;;10.03;6.77;;;20.00;99.90;;;;;;5041046;28;20888;-63
2022/10/21 11:51:01;;;;;;;7.77;3.77;;;20.00;99.90;;;;;;5061885;28;20482;-63
2022/10/21 11:53:42;;;;;;;8.40;5.40;;;19.90;99.90;;;;;;5034954;28;20475;-63
2022/10/21 11:56:19;;;;;;;16.93;9.57;;;19.70;99.90;;;;;;5040015;28;20446;-63
2022/10/21 11:59:00;;;;;;;8.60;4.40;;;19.60;99.90;;;;;;5054285;28;20475;-63
2022/10/21 12:01:38;;;;;;;10.00;6.30;;;19.50;99.90;;;;;;5041104;28;20471;-63
2022/10/21 12:04:24;;;;;;;9.43;6.33;;;19.50;99.90;;;;;;5046645;28;20481;-64
2022/10/21 12:07:01;;;;;;;6.90;3.70;;;19.40;99.90;;;;;;5061880;28;20457;-64
2022/10/21 12:09:33;;;;;;;11.23;3.97;;;19.40;99.90;;;;;;5054927;28;20482;-62
2022/10/21 12:12:04;;;;;;;13.23;7.87;;;19.20;99.90;;;;;;5058947;28;20485;-63
2022/10/21 12:14:37;;;;;;;11.07;5.57;;;19.10;99.90;;;;;;5073134;28;20477;-63
2022/10/21 12:17:08;;;;;;;14.60;10.17;;;19.40;99.90;;;;;;5064843;28;20445;-63
2022/10/21 12:19:36;;;;;;;12.60;6.30;;;19.30;99.90;;;;;;5023965;28;20484;-63
2022/10/21 12:22:03;;;;;;;18.07;6.00;;;19.40;99.90;;;;;;5048402;28;20474;-63
2022/10/21 12:24:43;;;;;;;9.97;6.37;;;19.50;99.90;;;;;;5048996;28;20479;-64
2022/10/21 12:27:19;;;;;;;13.20;8.50;;;19.60;99.90;;;;;;5042436;28;20824;-63
2022/10/21 12:30:02;;;;;;;8.17;5.27;;;19.70;99.90;;;;;;5019263;28;20494;-63
2022/10/21 12:32:35;;;;;;;11.60;5.30;;;20.00;99.90;;;;;;5011614;28;20442;-64
2022/10/21 12:35:03;;;;;;;12.83;6.57;;;20.20;99.90;;;;;;5063835;28;20908;-64
2022/10/21 12:38:05;;;;;;;13.47;6.30;;;20.40;99.90;;;;;;5052566;28;20468;-64
2022/10/21 12:40:37;;;;;;;11.20;6.87;;;20.60;99.90;;;;;;5067682;28;20481;-63
2022/10/21 12:43:06;;;;;;;15.33;7.00;;;20.80;99.90;;;;;;5067760;28;21405;-64
2022/10/21 12:45:37;;;;;;;7.10;5.00;;;20.80;99.90;;;;;;5062436;28;20473;-64
2022/10/21 12:48:19;;;;;;;18.17;10.10;;;20.80;99.90;;;;;;5063440;28;20708;-64
2022/10/21 12:50:57;;;;;;;10.83;4.93;;;21.00;99.90;;;;;;5046376;28;20487;-64
2022/10/21 12:53:38;;;;;;;9.10;4.53;;;21.00;99.90;;;;;;5021006;28;20479;-64
2022/10/21 12:56:08;;;;;;;17.17;10.30;;;21.00;99.90;;;;;;5043212;28;20487;-64
2022/10/21 12:58:40;;;;;;;8.03;5.37;;;20.90;99.90;;;;;;5050571;28;20990;-64
2022/10/21 13:01:38;;;;;;;17.90;11.03;;;20.90;99.90;;;;;;5045050;28;20865;-63
2022/10/21 13:04:26;;;;;;;12.43;4.60;;;20.80;99.90;;;;;;5031417;28;20536;-64
2022/10/21 13:06:55;;;;;;;6.70;3.87;;;20.90;99.90;;;;;;5042389;28;20471;-64
2022/10/21 13:09:43;;;;;;;11.07;4.30;;;20.90;99.90;;;;;;5046334;28;20546;-63
2022/10/21 13:12:15;;;;;;;6.70;5.03;;;;;;;;;;5045616;28;20770;-64
2022/10/21 13:14:44;;;;;;;6.80;4.80;;;20.40;99.90;;;;;;5045970;28;20478;-63
2022/10/21 13:17:27;;;;;;;7.97;4.60;;;20.30;99.90;;;;;;5052268;28;20963;-64